Time;durP1;ratioP1;P1;durP2;ratioP2;P2;SDS_P1;SDS_P2;PMS_P1;PMS_P2;Temp;Humidity;BMP_temperature;BMP_pressure;BME280_temperature;BME280_humidity;BME280_pressure;Samples;Min_cycle;Max_cycle;Signal;HPM_P1;HPM_P2
2022/09/26 00:01:20;;;;;;;4.70;2.88;;;;;;;;;;5070480;28;20398;-68
2022/09/26 00:03:48;;;;;;;3.70;2.87;;;;;;;;;;5069783;28;20055;-67
2022/09/26 00:06:16;;;;;;;4.22;2.75;;;;;;;;;;5064496;28;20042;-67
2022/09/26 00:08:42;;;;;;;4.55;2.80;;;;;;;;;;5058323;28;20048;-67
2022/09/26 00:11:09;;;;;;;4.00;2.85;;;;;;;;;;5062352;28;20063;-67
2022/09/26 00:13:36;;;;;;;6.50;2.90;;;;;;;;;;5071136;28;20453;-67
2022/09/26 00:16:03;;;;;;;7.00;2.58;;;;;;;;;;5070547;28;20154;-67
2022/09/26 00:18:29;;;;;;;4.70;2.60;;;;;;;;;;5067136;28;20677;-67
2022/09/26 00:21:02;;;;;;;5.38;2.75;;;;;;;;;;5065954;28;20036;-67
2022/09/26 00:23:28;;;;;;;6.60;2.45;;;;;;;;;;5062991;28;20037;-67
2022/09/26 00:25:57;;;;;;;4.75;2.65;;;;;;;;;;5065200;28;20044;-67
2022/09/26 00:28:24;;;;;;;4.93;2.55;;;;;;;;;;5060545;28;20045;-67
2022/09/26 00:30:50;;;;;;;5.35;2.35;;;;;;;;;;5056459;28;20036;-67
2022/09/26 00:33:16;;;;;;;5.20;2.50;;;;;;;;;;5066633;28;20094;-67
2022/09/26 00:35:48;;;;;;;4.32;2.50;;;;;;;;;;5051483;28;20049;-67
2022/09/26 00:38:14;;;;;;;4.50;2.25;;;;;;;;;;5051510;28;20102;-67
2022/09/26 00:40:40;;;;;;;7.18;2.85;;;;;;;;;;5057788;28;20512;-67
2022/09/26 00:43:24;;;;;;;3.35;2.42;;;;;;;;;;5062128;28;20044;-68
2022/09/26 00:45:50;;;;;;;6.30;2.88;;;;;;;;;;5055555;28;20064;-68
2022/09/26 00:48:18;;;;;;;9.82;3.17;;;;;;;;;;5073112;28;20111;-67
2022/09/26 00:50:44;;;;;;;5.25;2.53;;;;;;;;;;5056746;28;20042;-67
2022/09/26 00:53:12;;;;;;;6.95;2.85;;;;;;;;;;5067834;28;20410;-67
2022/09/26 00:55:42;;;;;;;3.47;2.92;;;;;;;;;;5073779;28;20054;-67
2022/09/26 00:58:13;;;;;;;5.10;2.67;;;;;;;;;;5057630;28;20095;-67
2022/09/26 01:00:40;;;;;;;6.18;2.70;;;;;;;;;;5058630;28;20123;-67
2022/09/26 01:03:06;;;;;;;5.93;2.67;;;;;;;;;;5062706;28;20041;-67
2022/09/26 01:05:33;;;;;;;7.50;2.92;;;;;;;;;;5043057;28;20079;-67
2022/09/26 01:07:59;;;;;;;6.13;2.83;;;;;;;;;;5061186;28;20032;-67
2022/09/26 01:10:25;;;;;;;8.73;3.03;;;;;;;;;;5061994;28;20040;-67
2022/09/26 01:12:52;;;;;;;3.90;2.53;;;;;;;;;;5067325;28;20098;-67
2022/09/26 01:15:18;;;;;;;4.13;2.50;;;;;;;;;;5063975;28;20413;-67
2022/09/26 01:17:45;;;;;;;6.30;2.40;;;;;;;;;;5074286;28;20037;-67
2022/09/26 01:20:23;;;;;;;7.65;2.83;;;;;;;;;;5065139;28;20044;-67
2022/09/26 01:22:49;;;;;;;3.58;2.80;;;;;;;;;;5067394;28;20514;-67
2022/09/26 01:25:18;;;;;;;3.75;2.22;;;;;;;;;;5072520;28;20047;-67
2022/09/26 01:28:03;;;;;;;5.18;2.90;;;;;;;;;;5073572;28;20032;-67
2022/09/26 01:30:34;;;;;;;8.15;2.67;;;;;;;;;;5054842;28;20041;-67
2022/09/26 01:33:20;;;;;;;5.72;2.40;;;;;;;;;;5070208;28;20041;-67
2022/09/26 01:35:49;;;;;;;4.30;2.28;;;;;;;;;;5063592;28;20491;-67
2022/09/26 01:38:15;;;;;;;6.45;2.42;;;;;;;;;;5070249;28;20541;-67
2022/09/26 01:40:58;;;;;;;4.05;2.13;;;;;;;;;;5054403;28;20041;-67
2022/09/26 01:43:30;;;;;;;2.75;2.35;;;;;;;;;;5059407;28;20068;-67
2022/09/26 01:46:09;;;;;;;3.95;2.42;;;;;;;;;;5035813;28;20044;-67
2022/09/26 01:48:47;;;;;;;6.57;2.72;;;;;;;;;;5063464;28;20079;-67
2022/09/26 01:51:20;;;;;;;7.82;2.85;;;;;;;;;;5084499;22;20048;-66
2022/09/26 01:53:58;;;;;;;3.70;2.60;;;;;;;;;;5071051;28;20037;-66
2022/09/26 01:56:30;;;;;;;6.38;2.70;;;;;;;;;;5071969;28;20045;-67
2022/09/26 01:58:58;;;;;;;7.00;2.85;;;;;;;;;;5073603;28;20040;-66
2022/09/26 02:01:26;;;;;;;4.70;3.25;;;;;;;;;;5062946;28;20037;-66
2022/09/26 02:03:54;;;;;;;6.38;2.85;;;;;;;;;;5069968;28;20079;-66
2022/09/26 02:06:23;;;;;;;9.10;3.17;;;;;;;;;;5066917;28;20398;-66
2022/09/26 02:08:56;;;;;;;4.20;3.00;;;;;;;;;;5073601;28;20383;-67
2022/09/26 02:11:23;;;;;;;5.53;2.55;;;;;;;;;;5074884;28;20372;-66
2022/09/26 02:13:58;;;;;;;4.80;2.97;;;;;;;;;;5066504;28;20502;-66
2022/09/26 02:16:30;;;;;;;5.75;2.80;;;;;;;;;;5064536;28;20033;-66
2022/09/26 02:19:05;;;;;;;4.65;2.83;;;;;;;;;;5072070;28;20083;-66
2022/09/26 02:21:31;;;;;;;5.40;2.90;;;;;;;;;;5078501;28;20045;-66
2022/09/26 02:23:58;;;;;;;5.05;3.10;;;;;;;;;;5079153;28;20037;-66
2022/09/26 02:26:24;;;;;;;7.40;3.08;;;;;;;;;;5081479;28;20411;-66
2022/09/26 02:28:50;;;;;;;8.13;3.13;;;;;;;;;;5066796;28;20058;-66
2022/09/26 02:31:20;;;;;;;6.82;3.00;;;;;;;;;;5068455;28;20071;-66
2022/09/26 02:33:50;;;;;;;5.60;2.90;;;;;;;;;;5066199;28;20056;-66
2022/09/26 02:36:17;;;;;;;5.50;3.08;;;;;;;;;;5075775;28;20036;-67
2022/09/26 02:38:43;;;;;;;7.88;3.40;;;;;;;;;;5085173;28;20135;-66
2022/09/26 02:41:28;;;;;;;4.93;3.22;;;;;;;;;;5079200;28;20040;-66
2022/09/26 02:43:54;;;;;;;7.03;3.10;;;;;;;;;;5068595;28;20048;-67
2022/09/26 02:46:39;;;;;;;4.25;2.92;;;;;;;;;;5070131;28;20040;-66
2022/09/26 02:49:05;;;;;;;6.38;3.33;;;;;;;;;;5079170;28;20441;-66
2022/09/26 02:51:31;;;;;;;8.00;3.38;;;;;;;;;;5077269;28;20131;-66
2022/09/26 02:54:16;;;;;;;7.05;3.50;;;;;;;;;;5084090;28;20245;-66
2022/09/26 02:56:57;;;;;;;4.60;3.38;;;;;;;;;;5070753;28;20044;-66
2022/09/26 02:59:23;;;;;;;;;;;;;;;;;;5063654;28;20352;-67
2022/09/26 03:01:49;;;;;;;7.05;3.35;;;;;;;;;;5072634;28;19938;-66
2022/09/26 03:04:22;;;;;;;6.20;3.83;;;;;;;;;;5072358;28;20043;-66
2022/09/26 03:06:52;;;;;;;6.20;3.63;;;;;;;;;;5067725;28;20116;-66
2022/09/26 03:09:20;;;;;;;8.53;4.50;;;;;;;;;;5077734;28;20037;-66
2022/09/26 03:11:46;;;;;;;8.43;5.03;;;;;;;;;;5072817;28;20435;-66
2022/09/26 03:14:13;;;;;;;7.70;3.95;;;;;;;;;;5069914;28;20112;-66
2022/09/26 03:16:43;;;;;;;8.80;4.43;;;;;;;;;;5068749;28;20064;-67
2022/09/26 03:19:25;;;;;;;7.00;4.18;;;;;;;;;;5077288;28;20390;-67
2022/09/26 03:21:51;;;;;;;7.93;4.80;;;;;;;;;;5092120;28;20056;-66
2022/09/26 03:24:17;;;;;;;7.35;3.97;;;;;;;;;;5075176;28;20162;-66
2022/09/26 03:26:43;;;;;;;9.18;4.70;;;;;;;;;;5066095;28;20073;-66
2022/09/26 03:29:09;;;;;;;7.78;4.93;;;;;;;;;;5067167;28;20040;-66
2022/09/26 03:31:36;;;;;;;9.63;4.60;;;;;;;;;;5071343;28;20048;-66
2022/09/26 03:34:02;;;;;;;8.07;5.10;;;;;;;;;;5071923;28;20413;-66
2022/09/26 03:36:28;;;;;;;7.70;4.57;;;;;;;;;;5071215;28;20052;-66
2022/09/26 03:38:54;;;;;;;9.52;4.65;;;;;;;;;;5060276;28;20502;-65
2022/09/26 03:41:20;;;;;;;10.00;5.45;;;;;;;;;;5067633;28;20041;-65
2022/09/26 03:43:46;;;;;;;7.85;4.82;;;;;;;;;;5071453;28;20045;-65
2022/09/26 03:46:14;;;;;;;9.43;5.22;;;;;;;;;;5072097;28;20101;-65
2022/09/26 03:48:40;;;;;;;8.52;5.50;;;;;;;;;;5075032;28;20119;-64
2022/09/26 03:51:08;;;;;;;8.45;4.70;;;;;;;;;;5074605;28;20029;-64
2022/09/26 03:53:35;;;;;;;8.20;5.25;;;;;;;;;;5061875;28;20051;-65
2022/09/26 03:56:08;;;;;;;10.05;4.90;;;;;;;;;;5070039;28;20044;-66
2022/09/26 03:58:34;;;;;;;10.25;5.70;;;;;;;;;;5063288;28;20045;-66
2022/09/26 04:01:07;;;;;;;6.93;4.80;;;;;;;;;;5076671;28;20394;-66
2022/09/26 04:03:34;;;;;;;8.35;5.00;;;;;;;;;;5070899;28;20055;-65
2022/09/26 04:06:00;;;;;;;10.10;5.22;;;;;;;;;;5066887;28;20551;-66
2022/09/26 04:08:26;;;;;;;9.25;5.35;;;;;;;;;;5068569;28;20036;-65
2022/09/26 04:10:52;;;;;;;11.95;5.32;;;;;;;;;;5069603;28;20079;-65
2022/09/26 04:13:18;;;;;;;9.43;5.47;;;;;;;;;;5078848;28;20520;-65
2022/09/26 04:15:44;;;;;;;10.93;5.30;;;;;;;;;;5072487;28;20493;-65
2022/09/26 04:18:10;;;;;;;12.90;5.93;;;;;;;;;;5083196;28;20100;-65
2022/09/26 04:20:36;;;;;;;10.75;6.18;;;;;;;;;;5081333;28;20382;-65
2022/09/26 04:23:02;;;;;;;9.38;6.32;;;;;;;;;;5062114;28;20127;-65
2022/09/26 04:25:29;;;;;;;9.23;5.93;;;;;;;;;;5070923;28;20539;-65
2022/09/26 04:27:55;;;;;;;11.13;6.20;;;;;;;;;;5070012;28;20055;-65
2022/09/26 04:30:21;;;;;;;10.75;6.38;;;;;;;;;;5082745;28;20082;-65
2022/09/26 04:32:47;;;;;;;10.65;6.75;;;;;;;;;;5074728;28;20040;-66
2022/09/26 04:35:13;;;;;;;12.73;7.28;;;;;;;;;;5087485;28;20043;-65
2022/09/26 04:37:40;;;;;;;12.68;7.32;;;;;;;;;;5072672;28;20517;-65
2022/09/26 04:40:08;;;;;;;12.23;7.97;;;;;;;;;;5063068;28;20119;-65
2022/09/26 04:42:35;;;;;;;12.23;8.43;;;;;;;;;;5060238;28;20045;-65
2022/09/26 04:45:02;;;;;;;11.27;7.63;;;;;;;;;;5060333;28;20132;-66
2022/09/26 04:47:28;;;;;;;11.98;7.75;;;;;;;;;;5052855;28;20547;-65
2022/09/26 04:49:54;;;;;;;12.43;7.80;;;;;;;;;;5055077;28;20033;-65
2022/09/26 04:52:20;;;;;;;14.15;7.75;;;;;;;;;;5062846;28;20036;-65
2022/09/26 04:54:46;;;;;;;11.00;7.43;;;;;;;;;;5067473;28;20033;-65
2022/09/26 04:57:13;;;;;;;12.45;8.75;;;;;;;;;;5070867;28;20044;-65
2022/09/26 04:59:39;;;;;;;11.77;8.77;;;;;;;;;;5069178;28;20089;-65
2022/09/26 05:02:07;;;;;;;14.48;8.52;;;;;;;;;;5053879;28;20119;-65
2022/09/26 05:04:33;;;;;;;14.95;8.88;;;;;;;;;;5061341;28;20076;-65
2022/09/26 05:06:59;;;;;;;15.57;8.98;;;;;;;;;;5069266;28;20037;-65
2022/09/26 05:09:26;;;;;;;14.88;9.15;;;;;;;;;;5076811;28;20506;-65
2022/09/26 05:11:52;;;;;;;17.02;8.85;;;;;;;;;;5069693;28;20041;-65
2022/09/26 05:14:18;;;;;;;10.68;7.28;;;;;;;;;;5079444;28;20044;-65
2022/09/26 05:16:44;;;;;;;12.38;8.15;;;;;;;;;;5059621;28;20047;-64
2022/09/26 05:19:10;;;;;;;12.88;8.57;;;;;;;;;;5058799;28;20041;-65
2022/09/26 05:21:36;;;;;;;11.85;8.02;;;;;;;;;;5072717;28;20101;-65
2022/09/26 05:26:48;;;;;;;10.98;7.57;;;;;;;;;;5053385;28;20522;-65
2022/09/26 05:29:16;;;;;;;11.30;7.85;;;;;;;;;;5064541;28;20037;-65
2022/09/26 05:31:42;;;;;;;13.57;7.93;;;;;;;;;;5066819;28;20046;-65
2022/09/26 05:34:10;;;;;;;13.90;8.20;;;;;;;;;;5070837;28;20040;-65
2022/09/26 05:36:36;;;;;;;12.70;8.05;;;;;;;;;;5081286;28;20062;-65
2022/09/26 05:39:03;;;;;;;17.23;8.02;;;;;;;;;;5062479;28;20080;-65
2022/09/26 05:41:30;;;;;;;12.10;7.15;;;;;;;;;;5066465;28;20044;-65
2022/09/26 05:43:56;;;;;;;11.02;7.30;;;;;;;;;;5063783;28;20439;-65
2022/09/26 05:46:23;;;;;;;13.13;7.25;;;;;;;;;;5069243;28;20040;-64
2022/09/26 05:48:49;;;;;;;8.60;6.47;;;;;;;;;;5071808;28;20119;-65
2022/09/26 05:51:16;;;;;;;11.43;7.32;;;;;;;;;;5069543;28;20127;-65
2022/09/26 05:53:43;;;;;;;12.35;7.22;;;;;;;;;;5070038;28;20041;-65
2022/09/26 05:56:10;;;;;;;11.57;7.43;;;;;;;;;;5069621;28;20097;-65
2022/09/26 05:58:38;;;;;;;9.27;5.40;;;;;;;;;;5072036;28;20068;-65
2022/09/26 06:01:08;;;;;;;10.45;6.70;;;;;;;;;;5068877;28;20047;-65
2022/09/26 06:03:35;;;;;;;10.68;6.97;;;;;;;;;;5064467;28;20513;-65
2022/09/26 06:06:02;;;;;;;9.90;5.95;;;;;;;;;;5067026;28;20428;-65
2022/09/26 06:08:28;;;;;;;9.93;6.00;;;;;;;;;;5063846;28;20094;-65
2022/09/26 06:10:58;;;;;;;10.05;6.10;;;;;;;;;;5068252;28;20486;-66
2022/09/26 06:13:24;;;;;;;11.50;6.60;;;;;;;;;;5068519;28;20045;-66
2022/09/26 06:15:51;;;;;;;10.88;5.95;;;;;;;;;;5061590;28;20041;-65
2022/09/26 06:18:17;;;;;;;9.77;5.93;;;;;;;;;;5067702;28;20040;-65
2022/09/26 06:20:43;;;;;;;9.52;5.65;;;;;;;;;;5054524;28;20044;-65
2022/09/26 06:23:09;;;;;;;11.82;6.07;;;;;;;;;;5061195;28;20211;-65
2022/09/26 06:25:35;;;;;;;10.20;6.47;;;;;;;;;;5062153;28;20123;-66
2022/09/26 06:28:01;;;;;;;9.55;5.68;;;;;;;;;;5071023;28;20044;-65
2022/09/26 06:30:27;;;;;;;13.23;5.95;;;;;;;;;;5080949;28;20037;-65
2022/09/26 06:32:53;;;;;;;8.13;5.88;;;;;;;;;;5070381;28;20056;-66
2022/09/26 06:35:20;;;;;;;7.60;5.75;;;;;;;;;;5064384;28;20105;-65
2022/09/26 06:37:46;;;;;;;5.95;5.35;;;;;;;;;;5066469;28;20040;-65
2022/09/26 06:40:12;;;;;;;8.63;5.47;;;;;;;;;;5071374;28;20085;-65
2022/09/26 06:42:39;;;;;;;11.20;5.45;;;;;;;;;;5069334;28;20135;-65
2022/09/26 06:45:08;;;;;;;9.52;4.45;;;;;;;;;;5067555;28;20040;-65
2022/09/26 06:47:35;;;;;;;8.40;5.05;;;;;;;;;;5065014;28;20525;-65
2022/09/26 06:50:01;;;;;;;9.35;4.85;;;;;;;;;;5071805;28;20040;-65
2022/09/26 06:52:33;;;;;;;13.15;5.25;;;;;;;;;;5065261;28;20107;-65
2022/09/26 06:55:03;;;;;;;6.88;4.70;;;;;;;;;;5070874;28;20395;-65
2022/09/26 06:57:36;;;;;;;8.23;4.70;;;;;;;;;;5072576;28;20048;-65
2022/09/26 07:00:02;;;;;;;9.52;4.28;;;;;;;;;;5071310;28;20039;-65
2022/09/26 07:02:28;;;;;;;9.45;5.15;;;;;;;;;;5068136;28;20032;-65
2022/09/26 07:04:55;;;;;;;9.75;4.60;;;;;;;;;;5067762;28;20037;-65
2022/09/26 07:07:21;;;;;;;10.95;4.20;;;;;;;;;;5066571;28;20128;-64
2022/09/26 07:09:47;;;;;;;7.90;4.40;;;;;;;;;;5081052;28;20086;-64
2022/09/26 07:12:14;;;;;;;9.73;4.20;;;;;;;;;;5078500;28;20036;-64
2022/09/26 07:14:40;;;;;;;7.72;4.10;;;;;;;;;;5069825;28;20118;-65
2022/09/26 07:17:07;;;;;;;9.13;4.32;;;;;;;;;;5071202;28;20052;-65
2022/09/26 07:19:33;;;;;;;6.60;3.67;;;;;;;;;;5070671;28;20397;-65
2022/09/26 07:21:59;;;;;;;5.78;3.67;;;;;;;;;;5079426;28;20041;-64
2022/09/26 07:24:26;;;;;;;6.57;4.07;;;;;;;;;;5077990;28;20041;-65
2022/09/26 07:26:52;;;;;;;6.45;3.92;;;;;;;;;;5080270;28;20048;-65
2022/09/26 07:29:18;;;;;;;6.28;3.13;;;;;;;;;;5069388;28;20402;-65
2022/09/26 07:31:44;;;;;;;6.35;3.58;;;;;;;;;;5057903;28;20040;-65
2022/09/26 07:34:10;;;;;;;5.78;3.40;;;;;;;;;;5070402;28;20402;-65
2022/09/26 07:36:38;;;;;;;7.55;3.63;;;;;;;;;;5071953;28;20119;-65
2022/09/26 07:39:04;;;;;;;8.00;3.60;;;;;;;;;;5063956;28;20048;-65
2022/09/26 07:41:30;;;;;;;6.43;3.75;;;;;;;;;;5070920;28;20037;-65
2022/09/26 07:43:57;;;;;;;8.82;3.88;;;;;;;;;;5070715;28;20052;-65
2022/09/26 07:51:56;;;;;;;10.18;4.38;;;;;;;;;;5064936;28;20123;-65
2022/09/26 07:54:23;;;;;;;6.97;4.68;;;;;;;;;;5094936;22;20084;-64
2022/09/26 07:56:49;;;;;;;7.22;4.18;;;;;;;;;;5078579;28;20039;-62
2022/09/26 07:59:15;;;;;;;9.63;4.18;;;;;;;;;;5084164;28;20405;-63
2022/09/26 08:01:41;;;;;;;7.40;3.80;;;;;;;;;;5078232;28;20036;-63
2022/09/26 08:04:10;;;;;;;8.40;4.57;;;;;;;;;;5087176;28;20379;-63
2022/09/26 08:06:36;;;;;;;10.40;4.53;;;;;;;;;;5089552;28;20047;-63
2022/09/26 08:09:02;;;;;;;6.13;4.40;;;;;;;;;;5082090;28;20036;-63
2022/09/26 08:11:28;;;;;;;11.70;4.63;;;;;;;;;;5083260;28;20036;-64
2022/09/26 08:13:54;;;;;;;9.40;4.70;;;;;;;;;;5090801;28;20043;-63
2022/09/26 08:16:22;;;;;;;8.45;4.35;;;;;;;;;;5088074;28;20074;-63
2022/09/26 08:18:51;;;;;;;9.77;4.85;;;;;;;;;;5083424;28;20131;-64
2022/09/26 08:21:18;;;;;;;9.73;4.78;;;;;;;;;;5090965;28;20123;-63
2022/09/26 08:23:45;;;;;;;6.30;4.20;;;;;;;;;;5082239;28;20516;-63
2022/09/26 08:26:12;;;;;;;6.97;4.13;;;;;;;;;;5092421;28;20050;-64
2022/09/26 08:28:38;;;;;;;8.23;4.40;;;;;;;;;;5074986;28;20072;-64
2022/09/26 08:31:05;;;;;;;11.02;4.40;;;;;;;;;;5075793;28;20043;-63
2022/09/26 08:33:34;;;;;;;8.30;4.20;;;;;;;;;;5089530;28;20043;-64
2022/09/26 08:36:07;;;;;;;9.02;3.85;;;;;;;;;;5089690;28;20040;-63
2022/09/26 08:38:34;;;;;;;8.50;4.75;;;;;;;;;;5085841;28;20048;-64
2022/09/26 08:41:20;;;;;;;5.70;4.00;;;;;;;;;;5085268;28;20510;-64
2022/09/26 08:44:08;;;;;;;8.35;4.22;;;;;;;;;;5088761;28;20059;-63
2022/09/26 08:46:59;;;;;;;6.70;4.25;;;;;;;;;;5068177;28;20473;-64
2022/09/26 08:49:33;;;;;;;7.57;3.80;;;;;;;;;;5087952;28;20184;-64
2022/09/26 08:52:00;;;;;;;8.50;4.20;;;;;;;;;;5090428;28;20527;-64
2022/09/26 08:54:32;;;;;;;6.90;4.07;;;;;;;;;;5090031;28;20490;-64
2022/09/26 08:57:00;;;;;;;6.60;4.10;;;;;;;;;;5096874;28;20490;-64
2022/09/26 08:59:29;;;;;;;7.03;4.25;;;;;;;;;;5068586;28;20055;-65
2022/09/26 09:01:58;;;;;;;7.50;3.90;;;;;;;;;;5068127;28;20033;-65
2022/09/26 09:04:45;;;;;;;8.93;3.95;;;;;;;;;;5086444;28;20040;-65
2022/09/26 09:07:19;;;;;;;6.88;3.75;;;;;;;;;;5090528;28;20136;-64
2022/09/26 09:09:45;;;;;;;10.48;4.38;;;;;;;;;;5090766;28;20032;-64
2022/09/26 09:12:17;;;;;;;7.65;3.90;;;;;;;;;;5087978;28;20119;-64
2022/09/26 09:14:43;;;;;;;7.40;3.95;;;;;;;;;;5084641;28;20091;-64
2022/09/26 09:17:12;;;;;;;7.35;4.10;;;;;;;;;;5092927;28;20040;-65
2022/09/26 09:19:50;;;;;;;9.43;4.10;;;;;;;;;;5086705;28;20051;-65
2022/09/26 09:22:28;;;;;;;7.72;3.80;;;;;;;;;;5090602;28;20042;-65
2022/09/26 09:24:58;;;;;;;5.78;3.55;;;;;;;;;;5077602;28;20060;-65
2022/09/26 09:27:34;;;;;;;7.38;3.85;;;;;;;;;;5080445;28;20086;-64
2022/09/26 09:30:09;;;;;;;6.90;3.28;;;;;;;;;;5078286;28;20032;-64
2022/09/26 09:32:44;;;;;;;8.20;3.40;;;;;;;;;;5085656;28;20036;-64
2022/09/26 09:35:13;;;;;;;8.23;4.20;;;;;;;;;;5080170;28;20029;-64
2022/09/26 09:37:47;;;;;;;7.57;4.13;;;;;;;;;;5090764;28;20474;-64
2022/09/26 09:40:18;;;;;;;6.60;4.30;;;;;;;;;;5089011;28;20469;-64
2022/09/26 09:42:48;;;;;;;6.25;3.60;;;;;;;;;;5093826;28;20035;-64
2022/09/26 09:45:19;;;;;;;7.15;3.85;;;;;;;;;;5091528;28;20118;-65
2022/09/26 09:47:45;;;;;;;10.07;4.30;;;;;;;;;;5094110;28;20379;-64
2022/09/26 09:50:13;;;;;;;11.85;4.47;;;;;;;;;;5080921;28;20036;-64
2022/09/26 09:52:55;;;;;;;10.70;4.25;;;;;;;;;;5076445;28;20040;-64
2022/09/26 09:55:33;;;;;;;10.20;4.38;;;;;;;;;;5076532;28;20029;-64
2022/09/26 09:58:14;;;;;;;7.13;4.15;;;;;;;;;;5074042;28;20037;-64
2022/09/26 10:00:45;;;;;;;10.88;4.40;;;;;;;;;;5083926;28;20040;-65
2022/09/26 10:03:11;;;;;;;;;;;;;;;;;;5078462;28;20055;-64
2022/09/26 10:05:41;;;;;;;8.38;4.18;;;;;;;;;;5093380;28;20330;-64
2022/09/26 10:08:10;;;;;;;6.75;4.05;;;;;;;;;;5090816;28;20063;-64
2022/09/26 10:10:40;;;;;;;7.05;4.20;;;;;;;;;;5086331;28;20083;-64
2022/09/26 10:13:07;;;;;;;8.63;4.30;;;;;;;;;;5072317;28;21042;-65
2022/09/26 10:15:35;;;;;;;8.15;4.47;;;;;;;;;;5080568;28;20043;-64
2022/09/26 10:18:02;;;;;;;7.53;4.45;;;;;;;;;;5091909;28;20118;-65
2022/09/26 10:20:37;;;;;;;7.57;4.35;;;;;;;;;;5077455;28;20036;-64
2022/09/26 10:23:10;;;;;;;9.10;3.85;;;;;;;;;;5084783;28;20101;-63
2022/09/26 10:25:36;;;;;;;8.82;4.90;;;;;;;;;;5075131;28;20041;-63
2022/09/26 10:28:04;;;;;;;7.22;4.60;;;;;;;;;;5083898;28;20044;-63
2022/09/26 10:30:32;;;;;;;6.95;4.30;;;;;;;;;;5082039;28;20540;-63
2022/09/26 10:32:59;;;;;;;10.40;4.85;;;;;;;;;;5089358;28;20047;-63
2022/09/26 10:35:30;;;;;;;8.98;4.97;;;;;;;;;;5082519;28;20051;-63
2022/09/26 10:38:01;;;;;;;8.10;4.95;;;;;;;;;;5092758;28;20043;-63
2022/09/26 10:40:47;;;;;;;6.00;4.55;;;;;;;;;;5091829;28;20119;-63
2022/09/26 10:43:20;;;;;;;11.93;4.65;;;;;;;;;;5080318;28;20486;-63
2022/09/26 10:45:53;;;;;;;6.47;4.32;;;;;;;;;;5091991;28;20043;-63
2022/09/26 10:48:23;;;;;;;7.70;4.60;;;;;;;;;;5078489;28;20101;-63
2022/09/26 10:50:50;;;;;;;7.00;4.68;;;;;;;;;;5090035;28;20032;-63
2022/09/26 10:53:17;;;;;;;7.90;4.72;;;;;;;;;;5092457;28;20129;-63
2022/09/26 10:55:45;;;;;;;10.55;4.55;;;;;;;;;;5079290;28;20044;-64
2022/09/26 10:58:29;;;;;;;6.22;4.32;;;;;;;;;;5090356;28;20494;-63
2022/09/26 11:00:59;;;;;;;8.35;4.57;;;;;;;;;;5086774;28;20532;-63
2022/09/26 11:03:42;;;;;;;7.32;4.22;;;;;;;;;;5088810;28;20082;-64
2022/09/26 11:06:44;;;;;;;13.02;5.03;;;;;;;;;;5090561;28;20040;-63
2022/09/26 11:09:10;;;;;;;8.57;4.53;;;;;;;;;;5006607;28;20092;-63
2022/09/26 11:11:37;;;;;;;6.93;4.95;;;;;;;;;;5069806;28;20048;-63
2022/09/26 11:14:07;;;;;;;7.60;4.70;;;;;;;;;;5089460;28;20050;-63
2022/09/26 11:16:48;;;;;;;9.25;5.30;;;;;;;;;;5076396;28;20040;-63
2022/09/26 11:19:29;;;;;;;6.45;4.82;;;;;;;;;;5091783;28;20036;-63
2022/09/26 11:22:08;;;;;;;9.38;5.07;;;;;;;;;;5086800;28;20037;-63
2022/09/26 11:24:54;;;;;;;11.80;4.97;;;;;;;;;;5083319;28;20498;-63
2022/09/26 11:27:32;;;;;;;8.07;5.45;;;;;;;;;;5070171;28;20047;-63
2022/09/26 11:30:07;;;;;;;8.77;4.68;;;;;;;;;;5084548;28;20036;-63
2022/09/26 11:32:39;;;;;;;8.48;5.22;;;;;;;;;;5084182;28;20067;-63
2022/09/26 11:35:06;;;;;;;8.68;5.10;;;;;;;;;;5089884;28;20755;-63
2022/09/26 11:37:51;;;;;;;7.32;4.80;;;;;;;;;;5080172;28;20040;-63
2022/09/26 11:40:33;;;;;;;8.63;4.88;;;;;;;;;;5088643;28;20554;-63
2022/09/26 11:43:24;;;;;;;9.77;5.20;;;;;;;;;;5081682;28;20041;-63
2022/09/26 11:46:03;;;;;;;8.55;5.45;;;;;;;;;;5063466;28;20044;-62
2022/09/26 11:48:32;;;;;;;5.57;5.00;;;;;;;;;;5090712;28;20044;-62
2022/09/26 11:51:12;;;;;;;9.27;5.85;;;;;;;;;;5088859;28;20101;-62
2022/09/26 11:53:41;;;;;;;11.40;5.38;;;;;;;;;;5091953;28;20047;-62
2022/09/26 11:56:14;;;;;;;8.35;5.50;;;;;;;;;;5086691;28;20068;-63
2022/09/26 11:58:51;;;;;;;8.27;5.20;;;;;;;;;;5091269;28;20043;-63
2022/09/26 12:01:37;;;;;;;6.00;5.05;;;;;;;;;;5089859;28;20047;-63
2022/09/26 12:04:24;;;;;;;6.70;5.03;;;;;;;;;;5087226;28;20101;-63
2022/09/26 12:06:53;;;;;;;8.00;5.07;;;;;;;;;;5090872;28;20040;-63
2022/09/26 12:09:26;;;;;;;10.80;5.85;;;;;;;;;;5089985;28;20040;-63
2022/09/26 12:11:58;;;;;;;7.10;4.68;;;;;;;;;;5083919;28;20043;-63
2022/09/26 12:14:38;;;;;;;9.43;4.78;;;;;;;;;;5077583;28;20041;-63
2022/09/26 12:17:36;;;;;;;7.25;5.00;;;;;;;;;;5086576;28;20047;-63
2022/09/26 12:20:20;;;;;;;9.63;4.50;;;;;;;;;;5039115;28;20079;-63
2022/09/26 12:23:07;;;;;;;5.22;3.70;;;;;;;;;;5088963;28;20122;-63
2022/09/26 12:25:36;;;;;;;5.43;4.13;;;;;;;;;;5068165;28;20045;-63
2022/09/26 12:28:04;;;;;;;7.32;3.63;;;;;;;;;;5076804;28;20123;-63
2022/09/26 12:30:32;;;;;;;7.07;3.80;;;;;;;;;;5069098;28;20040;-63
2022/09/26 12:33:01;;;;;;;4.28;3.65;;;;;;;;;;5077181;28;20085;-63
2022/09/26 12:35:28;;;;;;;6.40;3.90;;;;;;;;;;5080622;28;20051;-63
2022/09/26 12:38:16;;;;;;;5.38;3.05;;;;;;;;;;5042657;28;20048;-64
2022/09/26 12:40:42;;;;;;;7.38;3.22;;;;;;;;;;5058224;28;20498;-64
2022/09/26 12:43:20;;;;;;;6.20;3.17;;;;;;;;;;5076967;28;20043;-63
2022/09/26 12:45:59;;;;;;;3.65;3.00;;;;;;;;;;5077140;28;20044;-64
2022/09/26 12:48:57;;;;;;;3.55;3.22;;;;;;;;;;5083550;28;20039;-63
2022/09/26 12:51:26;;;;;;;4.55;3.40;;;;;;;;;;5057237;28;20044;-63
2022/09/26 12:53:52;;;;;;;4.35;3.03;;;;;;;;;;5080173;28;20104;-63
2022/09/26 12:56:37;;;;;;;4.10;3.28;;;;;;;;;;5073289;28;20486;-63
2022/09/26 12:59:06;;;;;;;4.93;2.97;;;;;;;;;;5084712;28;20501;-63
2022/09/26 13:01:32;;;;;;;5.07;3.17;;;;;;;;;;5077347;28;20044;-63
2022/09/26 13:04:04;;;;;;;4.18;2.80;;;;;;;;;;5083876;28;20040;-63
2022/09/26 13:06:36;;;;;;;5.05;2.78;;;;;;;;;;5080872;28;20036;-63
2022/09/26 13:09:14;;;;;;;4.18;2.88;;;;;;;;;;5072661;28;20123;-63
2022/09/26 13:11:44;;;;;;;3.70;2.63;;;;;;;;;;5078260;28;21038;-63
2022/09/26 13:14:19;;;;;;;3.67;3.03;;;;;;;;;;5077693;28;20044;-63
2022/09/26 13:16:50;;;;;;;4.45;2.58;;;;;;;;;;5070066;28;20120;-64
2022/09/26 13:19:21;;;;;;;3.08;2.60;;;;;;;;;;5066978;28;20086;-63
2022/09/26 13:21:53;;;;;;;4.93;2.65;;;;;;;;;;5086639;28;20512;-63
2022/09/26 13:24:31;;;;;;;3.95;2.50;;;;;;;;;;5075144;28;20127;-63
2022/09/26 13:27:33;;;;;;;3.28;2.53;;;;;;;;;;5074955;28;20147;-63
2022/09/26 13:30:01;;;;;;;2.83;2.53;;;;;;;;;;5034254;28;20545;-64
2022/09/26 13:32:40;;;;;;;2.97;2.60;;;;;;;;;;5078871;28;20510;-64
2022/09/26 13:35:06;;;;;;;2.53;2.22;;;;;;;;;;5071534;28;20045;-64
2022/09/26 13:37:55;;;;;;;2.90;2.47;;;;;;;;;;5071413;28;20087;-63
2022/09/26 13:40:25;;;;;;;3.22;2.33;;;;;;;;;;5075062;28;20139;-63
2022/09/26 13:43:05;;;;;;;2.42;2.22;;;;;;;;;;5075248;28;20055;-64
2022/09/26 13:45:58;;;;;;;2.65;2.10;;;;;;;;;;5066387;28;20487;-63
2022/09/26 13:48:24;;;;;;;3.10;2.53;;;;;;;;;;5081599;28;20043;-63
2022/09/26 13:50:54;;;;;;;3.35;2.80;;;;;;;;;;5072167;28;20047;-63
2022/09/26 13:53:27;;;;;;;3.25;2.78;;;;;;;;;;5073663;28;20066;-63
2022/09/26 13:56:13;;;;;;;3.88;2.20;;;;;;;;;;5086727;28;20567;-64
2022/09/26 13:58:39;;;;;;;4.38;2.75;;;;;;;;;;5082704;28;20181;-63
2022/09/26 14:01:24;;;;;;;5.30;2.67;;;;;;;;;;5085868;22;20039;-64
2022/09/26 14:04:10;;;;;;;2.63;2.15;;;;;;;;;;5067309;28;20422;-64
2022/09/26 14:06:36;;;;;;;4.50;2.67;;;;;;;;;;5055728;28;20041;-63
2022/09/26 14:09:22;;;;;;;3.58;2.70;;;;;;;;;;5071826;28;20040;-63
2022/09/26 14:11:50;;;;;;;5.03;3.00;;;;;;;;;;5052327;28;20470;-63
2022/09/26 14:14:20;;;;;;;2.75;2.42;;;;;;;;;;5052107;28;20102;-63
2022/09/26 14:16:49;;;;;;;3.75;2.83;;;;;;;;;;5049491;28;20119;-63
2022/09/26 14:19:38;;;;;;;2.63;1.90;;;;;;;;;;5048995;28;20037;-63
2022/09/26 14:22:24;;;;;;;3.00;1.80;;;;;;;;;;5043796;28;20045;-63
2022/09/26 14:24:51;;;;;;;2.33;1.90;;;;;;;;;;5046850;28;20044;-63
2022/09/26 14:27:17;;;;;;;2.83;2.10;;;;;;;;;;5048799;28;20040;-63
2022/09/26 14:29:50;;;;;;;2.35;2.03;;;;;;;;;;5055518;28;20033;-63
2022/09/26 14:32:18;;;;;;;2.08;1.75;;;;;;;;;;5049695;28;20051;-63
2022/09/26 14:34:46;;;;;;;2.70;2.13;;;;;;;;;;5047106;28;20056;-63
2022/09/26 14:37:24;;;;;;;2.42;2.17;;;;;;;;;;5048797;28;20507;-62
2022/09/26 14:40:10;;;;;;;2.78;1.80;;;;;;;;;;5042497;28;20486;-63
2022/09/26 14:42:39;;;;;;;3.58;2.00;;;;;;;;;;5031887;28;20056;-63
2022/09/26 14:45:15;;;;;;;3.15;2.03;;;;;;;;;;5047825;28;20513;-63
2022/09/26 14:47:47;;;;;;;4.68;2.30;;;;;;;;;;5031759;28;20036;-63
2022/09/26 14:50:24;;;;;;;3.00;2.08;;;;;;;;;;5048831;28;20045;-63
2022/09/26 14:52:54;;;;;;;3.38;2.10;;;;;;;;;;5043638;28;20041;-63
2022/09/26 14:55:20;;;;;;;2.05;1.77;;;;;;;;;;5047502;28;20039;-63
2022/09/26 14:57:47;;;;;;;2.10;1.90;;;;;;;;;;5039730;28;20474;-63
2022/09/26 15:00:32;;;;;;;2.40;1.80;;;;;;;;;;5040357;28;20498;-63
2022/09/26 15:02:59;;;;;;;2.30;1.80;;;;;;;;;;5045755;28;20474;-63
2022/09/26 15:05:26;;;;;;;2.22;1.65;;;;;;;;;;5048371;28;20119;-63
2022/09/26 15:07:54;;;;;;;2.92;1.83;;;;;;;;;;5046485;28;20144;-63
2022/09/26 15:10:24;;;;;;;1.83;1.73;;;;;;;;;;5048597;28;20037;-63